sensor_id;sensor_type;location;lat;lon;timestamp;temperature;humidity
1468;DHT22;727;48.892;9.544;2022-12-18T00:00:39;-9.10;99.90
1468;DHT22;727;48.892;9.544;2022-12-18T00:03:08;-9.20;99.90
1468;DHT22;727;48.892;9.544;2022-12-18T00:05:35;-9.10;99.90
1468;DHT22;727;48.892;9.544;2022-12-18T00:08:02;-9.20;99.90
1468;DHT22;727;48.892;9.544;2022-12-18T00:10:29;-9.20;99.90
1468;DHT22;727;48.892;9.544;2022-12-18T00:12:56;-9.20;99.90
1468;DHT22;727;48.892;9.544;2022-12-18T00:15:22;-9.10;99.90
1468;DHT22;727;48.892;9.544;2022-12-18T00:17:49;-9.10;99.90
1468;DHT22;727;48.892;9.544;2022-12-18T00:20:17;-9.10;99.90
1468;DHT22;727;48.892;9.544;2022-12-18T00:22:50;-9.10;99.90
1468;DHT22;727;48.892;9.544;2022-12-18T00:25:17;-9.10;99.90
1468;DHT22;727;48.892;9.544;2022-12-18T00:27:44;-9.20;99.90
1468;DHT22;727;48.892;9.544;2022-12-18T00:30:11;-9.20;99.90
1468;DHT22;727;48.892;9.544;2022-12-18T00:32:38;-9.30;99.90
1468;DHT22;727;48.892;9.544;2022-12-18T00:35:05;-9.30;99.90
1468;DHT22;727;48.892;9.544;2022-12-18T00:37:34;-9.30;99.90
1468;DHT22;727;48.892;9.544;2022-12-18T00:40:01;-9.30;99.90
1468;DHT22;727;48.892;9.544;2022-12-18T00:42:28;-9.30;99.90
1468;DHT22;727;48.892;9.544;2022-12-18T00:45:13;-9.30;99.90
1468;DHT22;727;48.892;9.544;2022-12-18T00:47:40;-9.30;99.90
1468;DHT22;727;48.892;9.544;2022-12-18T00:50:07;-9.30;99.90
1468;DHT22;727;48.892;9.544;2022-12-18T00:52:36;-9.30;99.90
1468;DHT22;727;48.892;9.544;2022-12-18T00:55:03;-9.30;99.90
1468;DHT22;727;48.892;9.544;2022-12-18T00:57:29;-9.40;99.90
1468;DHT22;727;48.892;9.544;2022-12-18T00:59:56;-9.40;99.90
1468;DHT22;727;48.892;9.544;2022-12-18T01:02:23;-9.40;99.90
1468;DHT22;727;48.892;9.544;2022-12-18T01:04:50;-9.40;99.90
1468;DHT22;727;48.892;9.544;2022-12-18T01:07:16;-9.50;99.90
1468;DHT22;727;48.892;9.544;2022-12-18T01:09:44;-9.60;99.90
1468;DHT22;727;48.892;9.544;2022-12-18T01:12:11;-9.70;99.90
1468;DHT22;727;48.892;9.544;2022-12-18T01:14:38;-9.70;99.90
1468;DHT22;727;48.892;9.544;2022-12-18T01:17:04;-9.70;99.90
1468;DHT22;727;48.892;9.544;2022-12-18T01:19:31;-9.70;99.90
1468;DHT22;727;48.892;9.544;2022-12-18T01:21:58;-9.70;99.90
1468;DHT22;727;48.892;9.544;2022-12-18T01:24:25;-9.60;99.90
1468;DHT22;727;48.892;9.544;2022-12-18T01:26:53;-9.60;99.90
1468;DHT22;727;48.892;9.544;2022-12-18T01:29:20;-9.60;99.90
1468;DHT22;727;48.892;9.544;2022-12-18T01:31:47;-9.60;99.90
1468;DHT22;727;48.892;9.544;2022-12-18T01:34:13;-9.60;99.90
1468;DHT22;727;48.892;9.544;2022-12-18T01:36:40;-9.60;99.90
1468;DHT22;727;48.892;9.544;2022-12-18T01:39:10;-9.70;99.90
1468;DHT22;727;48.892;9.544;2022-12-18T01:41:38;-9.80;99.90
1468;DHT22;727;48.892;9.544;2022-12-18T01:47:33;-9.90;99.90
1468;DHT22;727;48.892;9.544;2022-12-18T01:50:04;-9.80;99.90
1468;DHT22;727;48.892;9.544;2022-12-18T01:52:33;-9.90;99.90
1468;DHT22;727;48.892;9.544;2022-12-18T01:55:00;-9.80;99.90
1468;DHT22;727;48.892;9.544;2022-12-18T01:57:28;-9.80;99.90
1468;DHT22;727;48.892;9.544;2022-12-18T01:59:59;-9.70;99.90
1468;DHT22;727;48.892;9.544;2022-12-18T02:02:27;-9.60;99.90
1468;DHT22;727;48.892;9.544;2022-12-18T02:04:56;-9.60;99.90
1468;DHT22;727;48.892;9.544;2022-12-18T02:07:32;-9.60;99.90
1468;DHT22;727;48.892;9.544;2022-12-18T02:10:02;-9.60;99.90
1468;DHT22;727;48.892;9.544;2022-12-18T02:12:35;-9.70;99.90
1468;DHT22;727;48.892;9.544;2022-12-18T02:15:09;-9.70;99.90
1468;DHT22;727;48.892;9.544;2022-12-18T02:17:38;-9.70;99.90
1468;DHT22;727;48.892;9.544;2022-12-18T02:20:13;-9.70;99.90
1468;DHT22;727;48.892;9.544;2022-12-18T02:22:51;-9.70;99.90
1468;DHT22;727;48.892;9.544;2022-12-18T02:25:30;-9.70;99.90
1468;DHT22;727;48.892;9.544;2022-12-18T02:28:02;-9.70;99.90
1468;DHT22;727;48.892;9.544;2022-12-18T02:30:32;-9.70;99.90
1468;DHT22;727;48.892;9.544;2022-12-18T02:33:02;-9.70;99.90
1468;DHT22;727;48.892;9.544;2022-12-18T02:35:31;-9.70;99.90
1468;DHT22;727;48.892;9.544;2022-12-18T02:37:59;-9.70;99.90
1468;DHT22;727;48.892;9.544;2022-12-18T02:40:27;-9.70;99.90
1468;DHT22;727;48.892;9.544;2022-12-18T02:42:55;-9.70;99.90
1468;DHT22;727;48.892;9.544;2022-12-18T02:45:23;-9.70;99.90
1468;DHT22;727;48.892;9.544;2022-12-18T02:47:50;-9.80;99.90
1468;DHT22;727;48.892;9.544;2022-12-18T02:50:19;-9.70;99.90
1468;DHT22;727;48.892;9.544;2022-12-18T02:52:54;-9.70;99.90
1468;DHT22;727;48.892;9.544;2022-12-18T02:55:29;-9.70;99.90
1468;DHT22;727;48.892;9.544;2022-12-18T02:58:04;-9.70;99.90
1468;DHT22;727;48.892;9.544;2022-12-18T03:00:39;-9.70;99.90
1468;DHT22;727;48.892;9.544;2022-12-18T03:03:11;-9.70;99.90
1468;DHT22;727;48.892;9.544;2022-12-18T03:05:44;-9.70;99.90
1468;DHT22;727;48.892;9.544;2022-12-18T03:08:15;-9.60;99.90
1468;DHT22;727;48.892;9.544;2022-12-18T03:10:51;-9.60;99.90
1468;DHT22;727;48.892;9.544;2022-12-18T03:13:23;-9.60;99.90
1468;DHT22;727;48.892;9.544;2022-12-18T03:15:55;-9.60;99.90
1468;DHT22;727;48.892;9.544;2022-12-18T03:18:25;-9.70;99.90
1468;DHT22;727;48.892;9.544;2022-12-18T03:20:56;-9.70;99.90
1468;DHT22;727;48.892;9.544;2022-12-18T03:23:27;-9.60;99.90
1468;DHT22;727;48.892;9.544;2022-12-18T03:25:59;-9.60;99.90
1468;DHT22;727;48.892;9.544;2022-12-18T03:28:28;-9.60;99.90
1468;DHT22;727;48.892;9.544;2022-12-18T03:30:59;-9.60;99.90
1468;DHT22;727;48.892;9.544;2022-12-18T03:33:29;-9.60;99.90
1468;DHT22;727;48.892;9.544;2022-12-18T03:35:58;-9.50;99.90
1468;DHT22;727;48.892;9.544;2022-12-18T03:38:24;-9.40;99.90
1468;DHT22;727;48.892;9.544;2022-12-18T03:40:58;-9.40;99.90
1468;DHT22;727;48.892;9.544;2022-12-18T03:43:34;-9.50;99.90
1468;DHT22;727;48.892;9.544;2022-12-18T03:46:07;-9.60;99.90
1468;DHT22;727;48.892;9.544;2022-12-18T03:48:40;-9.60;99.90
1468;DHT22;727;48.892;9.544;2022-12-18T03:51:11;-9.70;99.90
1468;DHT22;727;48.892;9.544;2022-12-18T03:53:43;-9.70;99.90
1468;DHT22;727;48.892;9.544;2022-12-18T03:56:14;-9.70;99.90
1468;DHT22;727;48.892;9.544;2022-12-18T03:58:43;-9.70;99.90
1468;DHT22;727;48.892;9.544;2022-12-18T04:01:15;-9.70;99.90
1468;DHT22;727;48.892;9.544;2022-12-18T04:03:44;-9.80;99.90
1468;DHT22;727;48.892;9.544;2022-12-18T04:06:13;-9.80;99.90
1468;DHT22;727;48.892;9.544;2022-12-18T04:08:41;-9.80;99.90
1468;DHT22;727;48.892;9.544;2022-12-18T04:11:09;-9.80;99.90
1468;DHT22;727;48.892;9.544;2022-12-18T04:13:37;-9.80;99.90
1468;DHT22;727;48.892;9.544;2022-12-18T04:16:04;-9.80;99.90
1468;DHT22;727;48.892;9.544;2022-12-18T04:18:32;-9.80;99.90
1468;DHT22;727;48.892;9.544;2022-12-18T04:20:59;-9.90;99.90
1468;DHT22;727;48.892;9.544;2022-12-18T04:23:26;-9.90;99.90
1468;DHT22;727;48.892;9.544;2022-12-18T04:25:53;-10.00;99.90
1468;DHT22;727;48.892;9.544;2022-12-18T04:28:21;-10.00;99.90
1468;DHT22;727;48.892;9.544;2022-12-18T04:30:48;-10.00;99.90
1468;DHT22;727;48.892;9.544;2022-12-18T04:33:17;-10.00;99.90
1468;DHT22;727;48.892;9.544;2022-12-18T04:35:45;-10.00;99.90
1468;DHT22;727;48.892;9.544;2022-12-18T04:38:12;-10.10;99.90
1468;DHT22;727;48.892;9.544;2022-12-18T04:40:39;-10.20;99.90
1468;DHT22;727;48.892;9.544;2022-12-18T04:43:05;-10.20;99.90
1468;DHT22;727;48.892;9.544;2022-12-18T04:45:33;-10.20;99.90
1468;DHT22;727;48.892;9.544;2022-12-18T04:48:00;-10.20;99.90
1468;DHT22;727;48.892;9.544;2022-12-18T04:50:27;-10.10;99.90
1468;DHT22;727;48.892;9.544;2022-12-18T04:52:55;-10.10;99.90
1468;DHT22;727;48.892;9.544;2022-12-18T04:55:22;-10.10;99.90
1468;DHT22;727;48.892;9.544;2022-12-18T04:57:49;-10.00;99.90
1468;DHT22;727;48.892;9.544;2022-12-18T05:00:16;-10.00;99.90
1468;DHT22;727;48.892;9.544;2022-12-18T05:02:42;-10.00;99.90
1468;DHT22;727;48.892;9.544;2022-12-18T05:05:10;-9.70;99.90
1468;DHT22;727;48.892;9.544;2022-12-18T05:07:36;-9.60;99.90
1468;DHT22;727;48.892;9.544;2022-12-18T05:10:07;-9.50;99.90
1468;DHT22;727;48.892;9.544;2022-12-18T05:12:33;-9.50;99.90
1468;DHT22;727;48.892;9.544;2022-12-18T05:15:20;-9.60;99.90
1468;DHT22;727;48.892;9.544;2022-12-18T05:17:47;-9.50;99.90
1468;DHT22;727;48.892;9.544;2022-12-18T05:20:14;-9.40;99.90
1468;DHT22;727;48.892;9.544;2022-12-18T05:22:40;-9.20;99.90
1468;DHT22;727;48.892;9.544;2022-12-18T05:25:09;-9.00;99.90
1468;DHT22;727;48.892;9.544;2022-12-18T05:27:35;-8.80;99.90
1468;DHT22;727;48.892;9.544;2022-12-18T05:30:03;-8.60;99.90
1468;DHT22;727;48.892;9.544;2022-12-18T05:32:30;-8.50;99.90
1468;DHT22;727;48.892;9.544;2022-12-18T05:34:56;-8.30;99.90
1468;DHT22;727;48.892;9.544;2022-12-18T05:37:23;-8.30;99.90
1468;DHT22;727;48.892;9.544;2022-12-18T05:39:50;-8.00;99.90
1468;DHT22;727;48.892;9.544;2022-12-18T05:42:18;-8.00;99.90
1468;DHT22;727;48.892;9.544;2022-12-18T05:44:45;-7.90;99.90
1468;DHT22;727;48.892;9.544;2022-12-18T05:47:11;-7.90;99.90
1468;DHT22;727;48.892;9.544;2022-12-18T05:49:38;-7.90;99.90
1468;DHT22;727;48.892;9.544;2022-12-18T05:52:05;-7.90;99.90
1468;DHT22;727;48.892;9.544;2022-12-18T05:54:32;-8.00;99.90
1468;DHT22;727;48.892;9.544;2022-12-18T05:56:58;-8.00;99.90
1468;DHT22;727;48.892;9.544;2022-12-18T05:59:26;-7.90;99.90
1468;DHT22;727;48.892;9.544;2022-12-18T06:01:53;-7.80;99.90
1468;DHT22;727;48.892;9.544;2022-12-18T06:04:20;-7.70;99.90
1468;DHT22;727;48.892;9.544;2022-12-18T06:06:46;-7.60;99.90
1468;DHT22;727;48.892;9.544;2022-12-18T06:09:13;-7.60;99.90
1468;DHT22;727;48.892;9.544;2022-12-18T06:11:40;-7.70;99.90
1468;DHT22;727;48.892;9.544;2022-12-18T06:14:06;-7.70;99.90
1468;DHT22;727;48.892;9.544;2022-12-18T06:16:34;-7.80;99.90
1468;DHT22;727;48.892;9.544;2022-12-18T06:19:03;-7.70;99.90
1468;DHT22;727;48.892;9.544;2022-12-18T06:21:30;-7.80;99.90
1468;DHT22;727;48.892;9.544;2022-12-18T06:23:57;-7.80;99.90
1468;DHT22;727;48.892;9.544;2022-12-18T06:26:24;-7.80;99.90
1468;DHT22;727;48.892;9.544;2022-12-18T06:28:51;-7.90;99.90
1468;DHT22;727;48.892;9.544;2022-12-18T06:31:17;-7.90;99.90
1468;DHT22;727;48.892;9.544;2022-12-18T06:33:46;-7.90;99.90
1468;DHT22;727;48.892;9.544;2022-12-18T06:36:13;-7.80;99.90
1468;DHT22;727;48.892;9.544;2022-12-18T06:38:41;-7.80;99.90
1468;DHT22;727;48.892;9.544;2022-12-18T06:41:09;-7.80;99.90
1468;DHT22;727;48.892;9.544;2022-12-18T06:43:35;-7.70;99.90
1468;DHT22;727;48.892;9.544;2022-12-18T06:46:03;-7.80;99.90
1468;DHT22;727;48.892;9.544;2022-12-18T06:48:31;-7.70;99.90
1468;DHT22;727;48.892;9.544;2022-12-18T06:50:59;-7.60;99.90
1468;DHT22;727;48.892;9.544;2022-12-18T06:53:26;-7.70;99.90
1468;DHT22;727;48.892;9.544;2022-12-18T06:55:58;-7.80;99.90
1468;DHT22;727;48.892;9.544;2022-12-18T06:58:25;-7.80;99.90
1468;DHT22;727;48.892;9.544;2022-12-18T07:00:52;-7.90;99.90
1468;DHT22;727;48.892;9.544;2022-12-18T07:03:19;-8.00;99.90
1468;DHT22;727;48.892;9.544;2022-12-18T07:05:45;-7.80;99.90
1468;DHT22;727;48.892;9.544;2022-12-18T07:08:13;-7.90;99.90
1468;DHT22;727;48.892;9.544;2022-12-18T07:10:41;-7.90;99.90
1468;DHT22;727;48.892;9.544;2022-12-18T07:13:08;-7.90;99.90
1468;DHT22;727;48.892;9.544;2022-12-18T07:15:35;-8.00;99.90
1468;DHT22;727;48.892;9.544;2022-12-18T07:18:02;-7.90;99.90
1468;DHT22;727;48.892;9.544;2022-12-18T07:20:29;-7.80;99.90
1468;DHT22;727;48.892;9.544;2022-12-18T07:22:56;-7.80;99.90
1468;DHT22;727;48.892;9.544;2022-12-18T07:25:24;-7.70;99.90
1468;DHT22;727;48.892;9.544;2022-12-18T07:27:51;-7.60;99.90
1468;DHT22;727;48.892;9.544;2022-12-18T07:30:17;-7.60;99.90
1468;DHT22;727;48.892;9.544;2022-12-18T07:32:44;-7.40;99.90
1468;DHT22;727;48.892;9.544;2022-12-18T07:35:11;-7.30;99.90
1468;DHT22;727;48.892;9.544;2022-12-18T07:37:37;-7.20;99.90
1468;DHT22;727;48.892;9.544;2022-12-18T07:40:05;-7.20;99.90
1468;DHT22;727;48.892;9.544;2022-12-18T07:42:33;-7.10;99.90
1468;DHT22;727;48.892;9.544;2022-12-18T07:45:02;-7.00;99.90
1468;DHT22;727;48.892;9.544;2022-12-18T07:47:29;-6.90;99.90
1468;DHT22;727;48.892;9.544;2022-12-18T07:49:55;-6.80;99.90
1468;DHT22;727;48.892;9.544;2022-12-18T07:52:22;-6.70;99.90
1468;DHT22;727;48.892;9.544;2022-12-18T07:54:49;-6.80;99.90
1468;DHT22;727;48.892;9.544;2022-12-18T07:57:15;-6.80;99.90
1468;DHT22;727;48.892;9.544;2022-12-18T07:59:44;-6.80;99.90
1468;DHT22;727;48.892;9.544;2022-12-18T08:02:10;-6.80;99.90
1468;DHT22;727;48.892;9.544;2022-12-18T08:04:37;-6.70;99.90
1468;DHT22;727;48.892;9.544;2022-12-18T08:07:04;-6.50;99.90
1468;DHT22;727;48.892;9.544;2022-12-18T08:09:30;-6.50;99.90
1468;DHT22;727;48.892;9.544;2022-12-18T08:11:57;-6.20;99.90
1468;DHT22;727;48.892;9.544;2022-12-18T08:14:24;-5.10;99.90
1468;DHT22;727;48.892;9.544;2022-12-18T08:16:53;-3.60;99.90
1468;DHT22;727;48.892;9.544;2022-12-18T08:19:19;-2.30;99.90
1468;DHT22;727;48.892;9.544;2022-12-18T08:21:46;-1.40;99.90
1468;DHT22;727;48.892;9.544;2022-12-18T08:24:13;-1.10;99.00
1468;DHT22;727;48.892;9.544;2022-12-18T08:26:39;-0.80;96.50
1468;DHT22;727;48.892;9.544;2022-12-18T08:29:06;-0.30;95.70
1468;DHT22;727;48.892;9.544;2022-12-18T08:31:33;0.10;94.30
1468;DHT22;727;48.892;9.544;2022-12-18T08:34:01;0.50;92.50
1468;DHT22;727;48.892;9.544;2022-12-18T08:36:27;0.90;91.40
1468;DHT22;727;48.892;9.544;2022-12-18T08:38:54;1.10;90.10
1468;DHT22;727;48.892;9.544;2022-12-18T08:41:21;1.40;87.90
1468;DHT22;727;48.892;9.544;2022-12-18T08:43:48;1.50;88.00
1468;DHT22;727;48.892;9.544;2022-12-18T08:46:34;1.80;86.10
1468;DHT22;727;48.892;9.544;2022-12-18T08:49:03;2.10;84.60
1468;DHT22;727;48.892;9.544;2022-12-18T08:51:30;2.40;82.60
1468;DHT22;727;48.892;9.544;2022-12-18T08:53:57;2.60;81.50
1468;DHT22;727;48.892;9.544;2022-12-18T08:56:24;3.00;79.90
1468;DHT22;727;48.892;9.544;2022-12-18T08:58:52;3.10;78.70
1468;DHT22;727;48.892;9.544;2022-12-18T09:01:19;3.50;77.70
1468;DHT22;727;48.892;9.544;2022-12-18T09:03:46;3.70;76.80
1468;DHT22;727;48.892;9.544;2022-12-18T09:06:15;3.80;75.50
1468;DHT22;727;48.892;9.544;2022-12-18T09:08:43;4.00;74.90
1468;DHT22;727;48.892;9.544;2022-12-18T09:11:14;4.00;73.80
1468;DHT22;727;48.892;9.544;2022-12-18T09:13:41;4.20;73.30
1468;DHT22;727;48.892;9.544;2022-12-18T09:16:07;4.20;73.10
1468;DHT22;727;48.892;9.544;2022-12-18T09:18:35;4.50;72.60
1468;DHT22;727;48.892;9.544;2022-12-18T09:21:08;4.90;71.30
1468;DHT22;727;48.892;9.544;2022-12-18T09:23:36;5.20;70.70
1468;DHT22;727;48.892;9.544;2022-12-18T09:26:03;5.70;68.90
1468;DHT22;727;48.892;9.544;2022-12-18T09:28:30;5.90;67.30
1468;DHT22;727;48.892;9.544;2022-12-18T09:30:56;6.40;66.80
1468;DHT22;727;48.892;9.544;2022-12-18T09:33:23;6.70;65.40
1468;DHT22;727;48.892;9.544;2022-12-18T09:35:50;6.90;64.40
1468;DHT22;727;48.892;9.544;2022-12-18T09:38:19;7.30;62.90
1468;DHT22;727;48.892;9.544;2022-12-18T09:40:49;7.20;61.60
1468;DHT22;727;48.892;9.544;2022-12-18T09:43:18;7.50;62.90
1468;DHT22;727;48.892;9.544;2022-12-18T09:45:49;8.00;61.40
1468;DHT22;727;48.892;9.544;2022-12-18T09:48:21;8.20;59.10
1468;DHT22;727;48.892;9.544;2022-12-18T09:50:50;8.50;59.20
1468;DHT22;727;48.892;9.544;2022-12-18T09:53:21;8.20;58.50
1468;DHT22;727;48.892;9.544;2022-12-18T09:55:53;8.10;58.90
1468;DHT22;727;48.892;9.544;2022-12-18T09:58:26;8.60;59.10
1468;DHT22;727;48.892;9.544;2022-12-18T10:00:55;8.80;58.20
1468;DHT22;727;48.892;9.544;2022-12-18T10:03:22;9.10;57.60
1468;DHT22;727;48.892;9.544;2022-12-18T10:05:58;9.30;57.40
1468;DHT22;727;48.892;9.544;2022-12-18T10:08:37;9.50;57.90
1468;DHT22;727;48.892;9.544;2022-12-18T10:11:26;10.40;55.90
1468;DHT22;727;48.892;9.544;2022-12-18T10:13:59;10.60;53.30
1468;DHT22;727;48.892;9.544;2022-12-18T10:16:35;10.60;53.00
1468;DHT22;727;48.892;9.544;2022-12-18T10:19:21;10.90;53.40
1468;DHT22;727;48.892;9.544;2022-12-18T10:21:59;10.70;53.30
1468;DHT22;727;48.892;9.544;2022-12-18T10:24:33;11.10;52.80
1468;DHT22;727;48.892;9.544;2022-12-18T10:27:12;10.80;51.80
1468;DHT22;727;48.892;9.544;2022-12-18T10:29:41;10.40;52.10
1468;DHT22;727;48.892;9.544;2022-12-18T10:32:14;10.60;52.50
1468;DHT22;727;48.892;9.544;2022-12-18T10:34:44;10.80;53.10
1468;DHT22;727;48.892;9.544;2022-12-18T10:37:15;11.30;53.00
1468;DHT22;727;48.892;9.544;2022-12-18T10:39:43;11.90;52.20
1468;DHT22;727;48.892;9.544;2022-12-18T10:42:16;12.00;51.60
1468;DHT22;727;48.892;9.544;2022-12-18T10:44:44;11.10;50.70
1468;DHT22;727;48.892;9.544;2022-12-18T10:47:14;11.40;52.30
1468;DHT22;727;48.892;9.544;2022-12-18T10:49:47;11.40;51.80
1468;DHT22;727;48.892;9.544;2022-12-18T10:52:16;11.20;51.80
1468;DHT22;727;48.892;9.544;2022-12-18T10:54:48;11.90;51.70
1468;DHT22;727;48.892;9.544;2022-12-18T10:57:29;12.00;50.90
1468;DHT22;727;48.892;9.544;2022-12-18T10:59:58;10.90;50.70
1468;DHT22;727;48.892;9.544;2022-12-18T11:02:27;11.30;51.70
1468;DHT22;727;48.892;9.544;2022-12-18T11:04:54;11.40;52.30
1468;DHT22;727;48.892;9.544;2022-12-18T11:07:21;11.60;51.90
1468;DHT22;727;48.892;9.544;2022-12-18T11:10:00;11.30;51.10
1468;DHT22;727;48.892;9.544;2022-12-18T11:12:29;11.20;51.40
1468;DHT22;727;48.892;9.544;2022-12-18T11:14:56;10.20;51.60
1468;DHT22;727;48.892;9.544;2022-12-18T11:17:29;10.30;53.30
1468;DHT22;727;48.892;9.544;2022-12-18T11:19:57;10.10;52.50
1468;DHT22;727;48.892;9.544;2022-12-18T11:22:26;9.80;54.90
1468;DHT22;727;48.892;9.544;2022-12-18T11:24:56;9.80;55.40
1468;DHT22;727;48.892;9.544;2022-12-18T11:27:24;10.00;54.30
1468;DHT22;727;48.892;9.544;2022-12-18T11:29:52;9.80;54.90
1468;DHT22;727;48.892;9.544;2022-12-18T11:32:27;9.70;55.60
1468;DHT22;727;48.892;9.544;2022-12-18T11:34:59;9.10;56.60
1468;DHT22;727;48.892;9.544;2022-12-18T11:37:28;9.20;56.80
1468;DHT22;727;48.892;9.544;2022-12-18T11:39:57;9.20;57.00
1468;DHT22;727;48.892;9.544;2022-12-18T11:42:30;9.40;56.70
1468;DHT22;727;48.892;9.544;2022-12-18T11:45:08;9.80;56.30
1468;DHT22;727;48.892;9.544;2022-12-18T11:47:44;10.30;55.30
1468;DHT22;727;48.892;9.544;2022-12-18T11:50:14;10.70;54.10
1468;DHT22;727;48.892;9.544;2022-12-18T11:52:42;10.80;53.10
1468;DHT22;727;48.892;9.544;2022-12-18T11:55:12;11.10;52.70
1468;DHT22;727;48.892;9.544;2022-12-18T11:57:47;10.80;52.80
1468;DHT22;727;48.892;9.544;2022-12-18T12:00:19;10.60;53.70
1468;DHT22;727;48.892;9.544;2022-12-18T12:03:07;10.80;53.30
1468;DHT22;727;48.892;9.544;2022-12-18T12:05:45;10.30;53.20
1468;DHT22;727;48.892;9.544;2022-12-18T12:08:24;9.90;55.10
1468;DHT22;727;48.892;9.544;2022-12-18T12:11:01;9.90;55.90
1468;DHT22;727;48.892;9.544;2022-12-18T12:13:39;10.10;54.90
1468;DHT22;727;48.892;9.544;2022-12-18T12:16:16;10.10;54.60
1468;DHT22;727;48.892;9.544;2022-12-18T12:18:56;9.80;55.90
1468;DHT22;727;48.892;9.544;2022-12-18T12:21:32;9.50;56.50
1468;DHT22;727;48.892;9.544;2022-12-18T12:24:11;9.50;57.00
1468;DHT22;727;48.892;9.544;2022-12-18T12:26:49;9.40;56.80
1468;DHT22;727;48.892;9.544;2022-12-18T12:29:27;9.60;57.00
1468;DHT22;727;48.892;9.544;2022-12-18T12:32:11;9.60;56.70
1468;DHT22;727;48.892;9.544;2022-12-18T12:34:48;9.20;56.50
1468;DHT22;727;48.892;9.544;2022-12-18T12:37:28;8.80;57.50
1468;DHT22;727;48.892;9.544;2022-12-18T12:40:00;8.20;57.90
1468;DHT22;727;48.892;9.544;2022-12-18T12:42:32;7.90;59.20
1468;DHT22;727;48.892;9.544;2022-12-18T12:45:22;7.50;59.60
1468;DHT22;727;48.892;9.544;2022-12-18T12:47:52;7.20;60.40
1468;DHT22;727;48.892;9.544;2022-12-18T12:50:20;6.90;61.70
1468;DHT22;727;48.892;9.544;2022-12-18T12:52:51;6.90;62.50
1468;DHT22;727;48.892;9.544;2022-12-18T12:55:20;6.70;62.60
1468;DHT22;727;48.892;9.544;2022-12-18T12:57:54;6.70;62.70
1468;DHT22;727;48.892;9.544;2022-12-18T13:00:22;6.60;63.60
1468;DHT22;727;48.892;9.544;2022-12-18T13:02:56;6.10;63.80
1468;DHT22;727;48.892;9.544;2022-12-18T13:05:29;6.00;65.10
1468;DHT22;727;48.892;9.544;2022-12-18T13:08:01;5.60;65.70
1468;DHT22;727;48.892;9.544;2022-12-18T13:10:35;5.20;67.10
1468;DHT22;727;48.892;9.544;2022-12-18T13:13:05;5.20;67.50
1468;DHT22;727;48.892;9.544;2022-12-18T13:15:37;4.90;68.20
1468;DHT22;727;48.892;9.544;2022-12-18T13:18:13;4.70;69.80
1468;DHT22;727;48.892;9.544;2022-12-18T13:20:43;4.50;70.90
1468;DHT22;727;48.892;9.544;2022-12-18T13:23:31;4.50;71.10
1468;DHT22;727;48.892;9.544;2022-12-18T13:25:59;4.50;71.50
1468;DHT22;727;48.892;9.544;2022-12-18T13:28:51;4.10;71.70
1468;DHT22;727;48.892;9.544;2022-12-18T13:34:30;4.00;73.90
1468;DHT22;727;48.892;9.544;2022-12-18T13:39:54;4.10;74.40
1468;DHT22;727;48.892;9.544;2022-12-18T13:42:40;3.80;74.30
1468;DHT22;727;48.892;9.544;2022-12-18T13:45:45;3.50;75.90
1468;DHT22;727;48.892;9.544;2022-12-18T13:48:21;3.50;75.70
1468;DHT22;727;48.892;9.544;2022-12-18T13:50:53;3.50;75.70
1468;DHT22;727;48.892;9.544;2022-12-18T13:53:23;3.50;75.70
1468;DHT22;727;48.892;9.544;2022-12-18T13:55:51;3.50;76.60
1468;DHT22;727;48.892;9.544;2022-12-18T13:58:18;3.40;76.60
1468;DHT22;727;48.892;9.544;2022-12-18T14:00:45;3.30;77.00
1468;DHT22;727;48.892;9.544;2022-12-18T14:03:18;3.30;77.50
1468;DHT22;727;48.892;9.544;2022-12-18T14:05:45;3.10;78.80
1468;DHT22;727;48.892;9.544;2022-12-18T14:08:20;3.00;79.40
1468;DHT22;727;48.892;9.544;2022-12-18T14:10:48;2.90;80.00
1468;DHT22;727;48.892;9.544;2022-12-18T14:13:21;2.70;80.50
1468;DHT22;727;48.892;9.544;2022-12-18T14:15:50;2.70;81.60
1468;DHT22;727;48.892;9.544;2022-12-18T14:18:21;2.80;81.60
1468;DHT22;727;48.892;9.544;2022-12-18T14:20:50;2.60;81.20
1468;DHT22;727;48.892;9.544;2022-12-18T14:23:30;2.40;81.70
1468;DHT22;727;48.892;9.544;2022-12-18T14:25:57;2.10;82.10
1468;DHT22;727;48.892;9.544;2022-12-18T14:28:24;2.00;83.10
1468;DHT22;727;48.892;9.544;2022-12-18T14:30:52;1.80;84.30
1468;DHT22;727;48.892;9.544;2022-12-18T14:33:21;1.50;85.20
1468;DHT22;727;48.892;9.544;2022-12-18T14:35:57;1.30;86.80
1468;DHT22;727;48.892;9.544;2022-12-18T14:38:28;1.00;88.00
1468;DHT22;727;48.892;9.544;2022-12-18T14:40:59;0.90;89.20
1468;DHT22;727;48.892;9.544;2022-12-18T14:43:28;0.80;90.20
1468;DHT22;727;48.892;9.544;2022-12-18T14:45:55;0.70;90.80
1468;DHT22;727;48.892;9.544;2022-12-18T14:48:33;0.50;91.10
1468;DHT22;727;48.892;9.544;2022-12-18T14:51:02;0.40;91.60
1468;DHT22;727;48.892;9.544;2022-12-18T14:53:36;0.20;92.10
1468;DHT22;727;48.892;9.544;2022-12-18T14:56:13;0.10;92.60
1468;DHT22;727;48.892;9.544;2022-12-18T14:58:47;-0.10;93.20
1468;DHT22;727;48.892;9.544;2022-12-18T15:01:19;-0.10;94.00
1468;DHT22;727;48.892;9.544;2022-12-18T15:03:46;-0.20;94.10
1468;DHT22;727;48.892;9.544;2022-12-18T15:06:28;-0.30;94.50
1468;DHT22;727;48.892;9.544;2022-12-18T15:08:57;-0.40;94.80
1468;DHT22;727;48.892;9.544;2022-12-18T15:11:32;-0.50;95.10
1468;DHT22;727;48.892;9.544;2022-12-18T15:14:03;-0.70;95.30
1468;DHT22;727;48.892;9.544;2022-12-18T15:16:50;-0.90;95.70
1468;DHT22;727;48.892;9.544;2022-12-18T15:19:18;-1.00;96.20
1468;DHT22;727;48.892;9.544;2022-12-18T15:21:46;-1.10;96.60
1468;DHT22;727;48.892;9.544;2022-12-18T15:24:20;-1.20;97.10
1468;DHT22;727;48.892;9.544;2022-12-18T15:26:49;-1.40;97.60
1468;DHT22;727;48.892;9.544;2022-12-18T15:29:19;-1.50;98.20
1468;DHT22;727;48.892;9.544;2022-12-18T15:31:59;-1.60;98.70
1468;DHT22;727;48.892;9.544;2022-12-18T15:34:27;-1.70;99.20
1468;DHT22;727;48.892;9.544;2022-12-18T15:36:54;-1.70;99.80
1468;DHT22;727;48.892;9.544;2022-12-18T15:39:22;-1.70;99.90
1468;DHT22;727;48.892;9.544;2022-12-18T15:41:49;-1.60;99.90
1468;DHT22;727;48.892;9.544;2022-12-18T15:44:33;-1.50;99.90
1468;DHT22;727;48.892;9.544;2022-12-18T15:47:00;-1.40;99.90
1468;DHT22;727;48.892;9.544;2022-12-18T15:49:26;-1.40;99.90
1468;DHT22;727;48.892;9.544;2022-12-18T15:51:56;-1.60;99.90
1468;DHT22;727;48.892;9.544;2022-12-18T15:54:24;-1.70;99.90
1468;DHT22;727;48.892;9.544;2022-12-18T15:57:07;-1.80;99.90
1468;DHT22;727;48.892;9.544;2022-12-18T15:59:57;-2.00;99.90
1468;DHT22;727;48.892;9.544;2022-12-18T16:02:24;-2.10;99.90
1468;DHT22;727;48.892;9.544;2022-12-18T16:04:51;-2.20;99.90
1468;DHT22;727;48.892;9.544;2022-12-18T16:07:19;-2.40;99.90
1468;DHT22;727;48.892;9.544;2022-12-18T16:09:48;-2.40;99.90
1468;DHT22;727;48.892;9.544;2022-12-18T16:12:17;-2.60;99.90
1468;DHT22;727;48.892;9.544;2022-12-18T16:14:44;-2.60;99.90
1468;DHT22;727;48.892;9.544;2022-12-18T16:17:12;-2.70;99.90
1468;DHT22;727;48.892;9.544;2022-12-18T16:19:42;-2.70;99.90
1468;DHT22;727;48.892;9.544;2022-12-18T16:22:18;-2.70;99.90
1468;DHT22;727;48.892;9.544;2022-12-18T16:24:46;-2.80;99.90
1468;DHT22;727;48.892;9.544;2022-12-18T16:27:14;-2.80;99.90
1468;DHT22;727;48.892;9.544;2022-12-18T16:29:41;-2.90;99.90
1468;DHT22;727;48.892;9.544;2022-12-18T16:32:12;-3.00;99.90
1468;DHT22;727;48.892;9.544;2022-12-18T16:34:39;-3.10;99.90
1468;DHT22;727;48.892;9.544;2022-12-18T16:37:09;-3.10;99.90
1468;DHT22;727;48.892;9.544;2022-12-18T16:39:36;-3.20;99.90
1468;DHT22;727;48.892;9.544;2022-12-18T16:42:04;-3.20;99.90
1468;DHT22;727;48.892;9.544;2022-12-18T16:44:33;-3.30;99.90
1468;DHT22;727;48.892;9.544;2022-12-18T16:47:00;-3.40;99.90
1468;DHT22;727;48.892;9.544;2022-12-18T16:49:28;-3.40;99.90